sensor_id;sensor_type;location;lat;lon;timestamp;P1;durP1;ratioP1;P2;durP2;ratioP2
75358;SDS011;64046;51.978;5.934;2023-04-03T00:00:07;6.80;;;2.10;;
75358;SDS011;64046;51.978;5.934;2023-04-03T00:02:40;3.22;;;1.50;;
75358;SDS011;64046;51.978;5.934;2023-04-03T00:05:09;1.88;;;1.50;;
75358;SDS011;64046;51.978;5.934;2023-04-03T00:07:38;2.92;;;1.50;;
75358;SDS011;64046;51.978;5.934;2023-04-03T00:10:08;4.68;;;1.50;;
75358;SDS011;64046;51.978;5.934;2023-04-03T00:12:38;4.03;;;1.30;;
75358;SDS011;64046;51.978;5.934;2023-04-03T00:15:07;5.00;;;1.63;;
75358;SDS011;64046;51.978;5.934;2023-04-03T00:17:39;3.85;;;1.90;;
75358;SDS011;64046;51.978;5.934;2023-04-03T00:20:09;4.93;;;1.98;;
75358;SDS011;64046;51.978;5.934;2023-04-03T00:22:39;4.78;;;1.67;;
75358;SDS011;64046;51.978;5.934;2023-04-03T00:25:08;2.45;;;1.52;;
75358;SDS011;64046;51.978;5.934;2023-04-03T00:27:38;2.83;;;1.17;;
75358;SDS011;64046;51.978;5.934;2023-04-03T00:30:08;2.90;;;1.58;;
75358;SDS011;64046;51.978;5.934;2023-04-03T00:32:44;2.90;;;1.67;;
75358;SDS011;64046;51.978;5.934;2023-04-03T00:35:14;4.63;;;1.85;;
75358;SDS011;64046;51.978;5.934;2023-04-03T00:37:43;2.63;;;1.73;;
75358;SDS011;64046;51.978;5.934;2023-04-03T00:40:13;5.57;;;1.50;;
75358;SDS011;64046;51.978;5.934;2023-04-03T00:42:43;4.03;;;1.65;;
75358;SDS011;64046;51.978;5.934;2023-04-03T00:48:07;2.97;;;1.50;;
75358;SDS011;64046;51.978;5.934;2023-04-03T00:50:39;3.50;;;1.63;;
75358;SDS011;64046;51.978;5.934;2023-04-03T00:53:11;2.80;;;1.55;;
75358;SDS011;64046;51.978;5.934;2023-04-03T00:55:45;3.67;;;1.60;;
75358;SDS011;64046;51.978;5.934;2023-04-03T00:58:16;5.03;;;1.33;;
75358;SDS011;64046;51.978;5.934;2023-04-03T01:00:50;3.83;;;1.35;;
75358;SDS011;64046;51.978;5.934;2023-04-03T01:03:26;3.97;;;1.85;;
75358;SDS011;64046;51.978;5.934;2023-04-03T01:05:58;5.90;;;1.73;;
75358;SDS011;64046;51.978;5.934;2023-04-03T01:08:28;2.97;;;1.65;;
75358;SDS011;64046;51.978;5.934;2023-04-03T01:10:58;5.20;;;1.80;;
75358;SDS011;64046;51.978;5.934;2023-04-03T01:13:28;3.13;;;1.63;;
75358;SDS011;64046;51.978;5.934;2023-04-03T01:16:00;8.07;;;1.70;;
75358;SDS011;64046;51.978;5.934;2023-04-03T01:18:33;4.18;;;1.52;;
75358;SDS011;64046;51.978;5.934;2023-04-03T01:21:09;4.60;;;1.98;;
75358;SDS011;64046;51.978;5.934;2023-04-03T01:23:58;4.38;;;1.73;;
75358;SDS011;64046;51.978;5.934;2023-04-03T01:26:36;8.02;;;1.80;;
75358;SDS011;64046;51.978;5.934;2023-04-03T01:29:05;8.63;;;1.90;;
75358;SDS011;64046;51.978;5.934;2023-04-03T01:31:46;4.03;;;1.45;;
75358;SDS011;64046;51.978;5.934;2023-04-03T01:34:17;3.70;;;1.98;;
75358;SDS011;64046;51.978;5.934;2023-04-03T01:36:47;6.18;;;2.10;;
75358;SDS011;64046;51.978;5.934;2023-04-03T01:39:16;4.53;;;1.73;;
75358;SDS011;64046;51.978;5.934;2023-04-03T01:41:46;2.65;;;1.65;;
75358;SDS011;64046;51.978;5.934;2023-04-03T01:44:22;4.07;;;1.60;;
75358;SDS011;64046;51.978;5.934;2023-04-03T01:46:54;4.75;;;2.28;;
75358;SDS011;64046;51.978;5.934;2023-04-03T01:49:25;3.83;;;1.67;;
75358;SDS011;64046;51.978;5.934;2023-04-03T01:51:55;10.00;;;1.60;;
75358;SDS011;64046;51.978;5.934;2023-04-03T01:54:24;3.70;;;1.50;;
75358;SDS011;64046;51.978;5.934;2023-04-03T01:56:53;5.78;;;1.63;;
75358;SDS011;64046;51.978;5.934;2023-04-03T01:59:22;5.57;;;1.88;;
75358;SDS011;64046;51.978;5.934;2023-04-03T02:01:54;10.55;;;1.95;;
75358;SDS011;64046;51.978;5.934;2023-04-03T02:04:24;5.43;;;2.42;;
75358;SDS011;64046;51.978;5.934;2023-04-03T02:06:53;3.85;;;1.42;;
75358;SDS011;64046;51.978;5.934;2023-04-03T02:09:22;6.32;;;1.60;;
75358;SDS011;64046;51.978;5.934;2023-04-03T02:11:52;6.47;;;1.55;;
75358;SDS011;64046;51.978;5.934;2023-04-03T02:14:21;4.82;;;1.77;;
75358;SDS011;64046;51.978;5.934;2023-04-03T02:16:55;3.20;;;1.50;;
75358;SDS011;64046;51.978;5.934;2023-04-03T02:19:24;7.55;;;1.88;;
75358;SDS011;64046;51.978;5.934;2023-04-03T02:21:53;2.65;;;1.67;;
75358;SDS011;64046;51.978;5.934;2023-04-03T02:24:22;2.80;;;1.48;;
75358;SDS011;64046;51.978;5.934;2023-04-03T02:26:51;3.20;;;1.67;;
75358;SDS011;64046;51.978;5.934;2023-04-03T02:29:20;4.00;;;1.63;;
75358;SDS011;64046;51.978;5.934;2023-04-03T02:31:50;4.47;;;1.58;;
75358;SDS011;64046;51.978;5.934;2023-04-03T02:34:24;3.88;;;1.95;;
75358;SDS011;64046;51.978;5.934;2023-04-03T02:36:54;4.60;;;1.95;;
75358;SDS011;64046;51.978;5.934;2023-04-03T02:39:24;4.28;;;2.40;;
75358;SDS011;64046;51.978;5.934;2023-04-03T02:41:55;3.05;;;1.75;;
75358;SDS011;64046;51.978;5.934;2023-04-03T02:44:24;2.95;;;1.52;;
75358;SDS011;64046;51.978;5.934;2023-04-03T02:46:53;5.90;;;2.30;;
75358;SDS011;64046;51.978;5.934;2023-04-03T02:49:25;4.63;;;1.70;;
75358;SDS011;64046;51.978;5.934;2023-04-03T02:51:55;4.13;;;1.50;;
75358;SDS011;64046;51.978;5.934;2023-04-03T02:54:24;5.28;;;2.10;;
75358;SDS011;64046;51.978;5.934;2023-04-03T02:56:59;4.53;;;1.70;;
75358;SDS011;64046;51.978;5.934;2023-04-03T02:59:28;6.85;;;2.10;;
75358;SDS011;64046;51.978;5.934;2023-04-03T03:01:58;6.38;;;2.05;;
75358;SDS011;64046;51.978;5.934;2023-04-03T03:04:29;3.78;;;1.67;;
75358;SDS011;64046;51.978;5.934;2023-04-03T03:06:58;3.67;;;1.83;;
75358;SDS011;64046;51.978;5.934;2023-04-03T03:09:28;4.13;;;1.52;;
75358;SDS011;64046;51.978;5.934;2023-04-03T03:11:58;6.18;;;1.98;;
75358;SDS011;64046;51.978;5.934;2023-04-03T03:14:29;7.53;;;2.28;;
75358;SDS011;64046;51.978;5.934;2023-04-03T03:16:58;3.03;;;1.73;;
75358;SDS011;64046;51.978;5.934;2023-04-03T03:19:33;2.70;;;1.38;;
75358;SDS011;64046;51.978;5.934;2023-04-03T03:22:02;6.20;;;2.15;;
75358;SDS011;64046;51.978;5.934;2023-04-03T03:24:31;4.20;;;1.80;;
75358;SDS011;64046;51.978;5.934;2023-04-03T03:27:01;3.60;;;1.65;;
75358;SDS011;64046;51.978;5.934;2023-04-03T03:29:30;2.35;;;1.77;;
75358;SDS011;64046;51.978;5.934;2023-04-03T03:31:59;4.95;;;1.77;;
75358;SDS011;64046;51.978;5.934;2023-04-03T03:34:28;5.75;;;1.80;;
75358;SDS011;64046;51.978;5.934;2023-04-03T03:37:01;7.10;;;2.10;;
75358;SDS011;64046;51.978;5.934;2023-04-03T03:39:31;4.95;;;1.70;;
75358;SDS011;64046;51.978;5.934;2023-04-03T03:42:00;4.28;;;1.70;;
75358;SDS011;64046;51.978;5.934;2023-04-03T03:44:29;5.85;;;2.13;;
75358;SDS011;64046;51.978;5.934;2023-04-03T03:46:58;5.75;;;1.80;;
75358;SDS011;64046;51.978;5.934;2023-04-03T03:49:29;5.25;;;1.70;;
75358;SDS011;64046;51.978;5.934;2023-04-03T03:52:00;3.10;;;1.67;;
75358;SDS011;64046;51.978;5.934;2023-04-03T03:54:30;2.83;;;1.40;;
75358;SDS011;64046;51.978;5.934;2023-04-03T03:56:59;5.60;;;2.40;;
75358;SDS011;64046;51.978;5.934;2023-04-03T03:59:29;6.30;;;1.83;;
75358;SDS011;64046;51.978;5.934;2023-04-03T04:01:59;3.53;;;1.70;;
75358;SDS011;64046;51.978;5.934;2023-04-03T04:04:28;4.00;;;1.92;;
75358;SDS011;64046;51.978;5.934;2023-04-03T04:06:57;4.28;;;1.75;;
75358;SDS011;64046;51.978;5.934;2023-04-03T04:09:31;4.03;;;1.83;;
75358;SDS011;64046;51.978;5.934;2023-04-03T04:12:00;2.55;;;1.52;;
75358;SDS011;64046;51.978;5.934;2023-04-03T04:14:31;3.25;;;1.60;;
75358;SDS011;64046;51.978;5.934;2023-04-03T04:17:01;3.25;;;1.70;;
75358;SDS011;64046;51.978;5.934;2023-04-03T04:19:30;6.80;;;1.85;;
75358;SDS011;64046;51.978;5.934;2023-04-03T04:22:02;2.83;;;1.67;;
75358;SDS011;64046;51.978;5.934;2023-04-03T04:24:32;6.50;;;2.30;;
75358;SDS011;64046;51.978;5.934;2023-04-03T04:27:02;5.82;;;2.00;;
75358;SDS011;64046;51.978;5.934;2023-04-03T04:29:33;5.55;;;1.80;;
75358;SDS011;64046;51.978;5.934;2023-04-03T04:32:04;5.05;;;2.08;;
75358;SDS011;64046;51.978;5.934;2023-04-03T04:34:34;5.53;;;1.88;;
75358;SDS011;64046;51.978;5.934;2023-04-03T04:37:06;3.85;;;1.80;;
75358;SDS011;64046;51.978;5.934;2023-04-03T04:39:35;4.03;;;1.70;;
75358;SDS011;64046;51.978;5.934;2023-04-03T04:42:06;3.13;;;1.45;;
75358;SDS011;64046;51.978;5.934;2023-04-03T04:44:39;5.63;;;2.20;;
75358;SDS011;64046;51.978;5.934;2023-04-03T04:47:08;7.35;;;2.40;;
75358;SDS011;64046;51.978;5.934;2023-04-03T04:49:38;9.57;;;1.90;;
75358;SDS011;64046;51.978;5.934;2023-04-03T04:52:10;5.15;;;2.15;;
75358;SDS011;64046;51.978;5.934;2023-04-03T04:54:40;4.13;;;1.98;;
75358;SDS011;64046;51.978;5.934;2023-04-03T04:57:10;5.97;;;2.00;;
75358;SDS011;64046;51.978;5.934;2023-04-03T04:59:39;5.80;;;2.10;;
75358;SDS011;64046;51.978;5.934;2023-04-03T05:02:08;5.03;;;1.70;;
75358;SDS011;64046;51.978;5.934;2023-04-03T05:04:39;5.95;;;2.03;;
75358;SDS011;64046;51.978;5.934;2023-04-03T05:07:17;6.15;;;1.92;;
75358;SDS011;64046;51.978;5.934;2023-04-03T05:09:47;7.63;;;2.33;;
75358;SDS011;64046;51.978;5.934;2023-04-03T05:12:17;4.30;;;1.88;;
75358;SDS011;64046;51.978;5.934;2023-04-03T05:14:52;6.65;;;2.03;;
75358;SDS011;64046;51.978;5.934;2023-04-03T05:17:22;8.57;;;2.20;;
75358;SDS011;64046;51.978;5.934;2023-04-03T05:19:57;7.13;;;1.98;;
75358;SDS011;64046;51.978;5.934;2023-04-03T05:22:30;10.90;;;2.22;;
75358;SDS011;64046;51.978;5.934;2023-04-03T05:25:05;7.65;;;2.15;;
75358;SDS011;64046;51.978;5.934;2023-04-03T05:27:36;4.80;;;2.10;;
75358;SDS011;64046;51.978;5.934;2023-04-03T05:30:06;7.90;;;2.50;;
75358;SDS011;64046;51.978;5.934;2023-04-03T05:32:38;6.28;;;1.90;;
75358;SDS011;64046;51.978;5.934;2023-04-03T05:35:21;3.90;;;2.03;;
75358;SDS011;64046;51.978;5.934;2023-04-03T05:37:57;4.53;;;1.90;;
75358;SDS011;64046;51.978;5.934;2023-04-03T05:40:26;4.70;;;2.10;;
75358;SDS011;64046;51.978;5.934;2023-04-03T05:42:56;7.22;;;2.15;;
75358;SDS011;64046;51.978;5.934;2023-04-03T05:45:29;5.38;;;2.15;;
75358;SDS011;64046;51.978;5.934;2023-04-03T05:47:59;5.35;;;2.20;;
75358;SDS011;64046;51.978;5.934;2023-04-03T05:50:29;6.05;;;2.17;;
75358;SDS011;64046;51.978;5.934;2023-04-03T05:53:01;4.35;;;1.85;;
75358;SDS011;64046;51.978;5.934;2023-04-03T05:55:32;4.03;;;1.63;;
75358;SDS011;64046;51.978;5.934;2023-04-03T05:58:02;3.83;;;1.70;;
75358;SDS011;64046;51.978;5.934;2023-04-03T06:00:31;6.75;;;2.38;;
75358;SDS011;64046;51.978;5.934;2023-04-03T06:03:01;4.28;;;1.90;;
75358;SDS011;64046;51.978;5.934;2023-04-03T06:05:32;3.67;;;1.92;;
75358;SDS011;64046;51.978;5.934;2023-04-03T06:08:04;6.30;;;1.85;;
75358;SDS011;64046;51.978;5.934;2023-04-03T06:10:35;9.38;;;2.13;;
75358;SDS011;64046;51.978;5.934;2023-04-03T06:13:05;6.00;;;2.30;;
75358;SDS011;64046;51.978;5.934;2023-04-03T06:15:34;5.55;;;1.80;;
75358;SDS011;64046;51.978;5.934;2023-04-03T06:18:04;6.43;;;2.22;;
75358;SDS011;64046;51.978;5.934;2023-04-03T06:20:34;9.65;;;2.10;;
75358;SDS011;64046;51.978;5.934;2023-04-03T06:23:06;7.03;;;2.03;;
75358;SDS011;64046;51.978;5.934;2023-04-03T06:25:36;6.60;;;2.30;;
75358;SDS011;64046;51.978;5.934;2023-04-03T06:28:05;4.50;;;2.20;;
75358;SDS011;64046;51.978;5.934;2023-04-03T06:30:35;7.90;;;2.33;;
75358;SDS011;64046;51.978;5.934;2023-04-03T06:33:05;4.45;;;2.05;;
75358;SDS011;64046;51.978;5.934;2023-04-03T06:35:34;5.75;;;2.05;;
75358;SDS011;64046;51.978;5.934;2023-04-03T06:38:06;5.28;;;1.90;;
75358;SDS011;64046;51.978;5.934;2023-04-03T06:40:37;4.07;;;1.95;;
75358;SDS011;64046;51.978;5.934;2023-04-03T06:43:06;4.28;;;1.70;;
75358;SDS011;64046;51.978;5.934;2023-04-03T06:45:35;3.88;;;1.73;;
75358;SDS011;64046;51.978;5.934;2023-04-03T06:48:05;5.97;;;2.28;;
75358;SDS011;64046;51.978;5.934;2023-04-03T06:50:35;6.18;;;2.40;;
75358;SDS011;64046;51.978;5.934;2023-04-03T06:53:04;5.75;;;2.10;;
75358;SDS011;64046;51.978;5.934;2023-04-03T06:55:35;4.93;;;2.28;;
75358;SDS011;64046;51.978;5.934;2023-04-03T06:58:05;6.60;;;2.38;;
75358;SDS011;64046;51.978;5.934;2023-04-03T07:00:34;6.03;;;2.20;;
75358;SDS011;64046;51.978;5.934;2023-04-03T07:03:03;3.47;;;1.92;;
75358;SDS011;64046;51.978;5.934;2023-04-03T07:05:32;7.95;;;2.50;;
75358;SDS011;64046;51.978;5.934;2023-04-03T07:08:01;7.57;;;2.30;;
75358;SDS011;64046;51.978;5.934;2023-04-03T07:10:33;3.92;;;1.90;;
75358;SDS011;64046;51.978;5.934;2023-04-03T07:13:02;6.30;;;2.00;;
75358;SDS011;64046;51.978;5.934;2023-04-03T07:15:31;6.60;;;2.22;;
75358;SDS011;64046;51.978;5.934;2023-04-03T07:18:01;6.30;;;2.03;;
75358;SDS011;64046;51.978;5.934;2023-04-03T07:20:31;6.10;;;2.08;;
75358;SDS011;64046;51.978;5.934;2023-04-03T07:23:01;4.70;;;1.83;;
75358;SDS011;64046;51.978;5.934;2023-04-03T07:25:33;5.88;;;2.03;;
75358;SDS011;64046;51.978;5.934;2023-04-03T07:28:02;7.55;;;1.90;;
75358;SDS011;64046;51.978;5.934;2023-04-03T07:30:33;5.68;;;2.35;;
75358;SDS011;64046;51.978;5.934;2023-04-03T07:33:03;4.70;;;1.80;;
75358;SDS011;64046;51.978;5.934;2023-04-03T07:35:32;5.05;;;1.73;;
75358;SDS011;64046;51.978;5.934;2023-04-03T07:38:01;7.03;;;1.80;;
75358;SDS011;64046;51.978;5.934;2023-04-03T07:40:33;4.10;;;1.70;;
75358;SDS011;64046;51.978;5.934;2023-04-03T07:43:02;6.43;;;2.20;;
75358;SDS011;64046;51.978;5.934;2023-04-03T07:45:33;3.28;;;1.65;;
75358;SDS011;64046;51.978;5.934;2023-04-03T07:48:04;4.22;;;2.00;;
75358;SDS011;64046;51.978;5.934;2023-04-03T07:50:34;3.53;;;1.80;;
75358;SDS011;64046;51.978;5.934;2023-04-03T07:53:03;5.25;;;1.75;;
75358;SDS011;64046;51.978;5.934;2023-04-03T07:55:36;9.10;;;1.95;;
75358;SDS011;64046;51.978;5.934;2023-04-03T07:58:08;4.03;;;2.20;;
75358;SDS011;64046;51.978;5.934;2023-04-03T08:00:38;6.78;;;1.80;;
75358;SDS011;64046;51.978;5.934;2023-04-03T08:03:09;7.13;;;1.85;;
75358;SDS011;64046;51.978;5.934;2023-04-03T08:05:39;9.50;;;2.25;;
75358;SDS011;64046;51.978;5.934;2023-04-03T08:08:10;5.65;;;1.92;;
75358;SDS011;64046;51.978;5.934;2023-04-03T08:10:42;4.53;;;1.70;;
75358;SDS011;64046;51.978;5.934;2023-04-03T08:13:12;2.90;;;1.60;;
75358;SDS011;64046;51.978;5.934;2023-04-03T08:15:41;2.72;;;1.50;;
75358;SDS011;64046;51.978;5.934;2023-04-03T08:18:10;5.82;;;2.03;;
75358;SDS011;64046;51.978;5.934;2023-04-03T08:20:39;3.90;;;1.63;;
75358;SDS011;64046;51.978;5.934;2023-04-03T08:23:08;6.50;;;1.77;;
75358;SDS011;64046;51.978;5.934;2023-04-03T08:25:38;4.20;;;1.60;;
75358;SDS011;64046;51.978;5.934;2023-04-03T08:28:11;3.05;;;1.70;;
75358;SDS011;64046;51.978;5.934;2023-04-03T08:30:41;4.07;;;1.50;;
75358;SDS011;64046;51.978;5.934;2023-04-03T08:33:11;5.65;;;1.70;;
75358;SDS011;64046;51.978;5.934;2023-04-03T08:35:41;2.75;;;1.45;;
75358;SDS011;64046;51.978;5.934;2023-04-03T08:38:10;2.92;;;1.33;;
75358;SDS011;64046;51.978;5.934;2023-04-03T08:40:39;3.83;;;1.48;;
75358;SDS011;64046;51.978;5.934;2023-04-03T08:43:17;5.65;;;1.30;;
75358;SDS011;64046;51.978;5.934;2023-04-03T08:46:00;3.13;;;1.30;;
75358;SDS011;64046;51.978;5.934;2023-04-03T08:48:34;1.83;;;1.02;;
75358;SDS011;64046;51.978;5.934;2023-04-03T08:51:09;2.70;;;1.27;;
75358;SDS011;64046;51.978;5.934;2023-04-03T08:53:42;2.47;;;1.13;;
75358;SDS011;64046;51.978;5.934;2023-04-03T08:56:19;4.13;;;1.23;;
75358;SDS011;64046;51.978;5.934;2023-04-03T08:58:52;2.83;;;1.13;;
75358;SDS011;64046;51.978;5.934;2023-04-03T09:01:26;1.75;;;1.10;;
75358;SDS011;64046;51.978;5.934;2023-04-03T09:04:00;2.65;;;1.10;;
75358;SDS011;64046;51.978;5.934;2023-04-03T09:06:31;3.45;;;1.40;;
75358;SDS011;64046;51.978;5.934;2023-04-03T09:09:05;2.55;;;1.17;;
75358;SDS011;64046;51.978;5.934;2023-04-03T09:11:47;2.35;;;1.10;;
75358;SDS011;64046;51.978;5.934;2023-04-03T09:14:28;2.50;;;1.10;;
75358;SDS011;64046;51.978;5.934;2023-04-03T09:17:09;2.55;;;1.00;;
75358;SDS011;64046;51.978;5.934;2023-04-03T09:19:45;1.45;;;1.10;;
75358;SDS011;64046;51.978;5.934;2023-04-03T09:22:23;2.45;;;1.20;;
75358;SDS011;64046;51.978;5.934;2023-04-03T09:24:55;2.08;;;1.00;;
75358;SDS011;64046;51.978;5.934;2023-04-03T09:27:28;1.52;;;0.90;;
75358;SDS011;64046;51.978;5.934;2023-04-03T09:30:00;1.92;;;0.95;;
75358;SDS011;64046;51.978;5.934;2023-04-03T09:32:30;1.65;;;0.90;;
75358;SDS011;64046;51.978;5.934;2023-04-03T09:35:01;1.85;;;1.05;;
75358;SDS011;64046;51.978;5.934;2023-04-03T09:37:33;1.50;;;1.00;;
75358;SDS011;64046;51.978;5.934;2023-04-03T09:43:21;1.15;;;0.95;;
75358;SDS011;64046;51.978;5.934;2023-04-03T09:45:56;1.60;;;1.20;;
75358;SDS011;64046;51.978;5.934;2023-04-03T09:48:49;1.60;;;0.90;;
75358;SDS011;64046;51.978;5.934;2023-04-03T09:51:19;1.88;;;0.80;;
75358;SDS011;64046;51.978;5.934;2023-04-03T09:53:54;1.75;;;1.08;;
75358;SDS011;64046;51.978;5.934;2023-04-03T09:56:25;1.88;;;1.10;;
75358;SDS011;64046;51.978;5.934;2023-04-03T09:59:08;2.42;;;1.25;;
75358;SDS011;64046;51.978;5.934;2023-04-03T10:01:55;1.80;;;1.10;;
75358;SDS011;64046;51.978;5.934;2023-04-03T10:04:36;2.00;;;1.05;;
75358;SDS011;64046;51.978;5.934;2023-04-03T10:10:14;2.78;;;1.20;;
75358;SDS011;64046;51.978;5.934;2023-04-03T10:12:46;1.80;;;1.25;;
75358;SDS011;64046;51.978;5.934;2023-04-03T10:15:15;1.20;;;1.00;;
75358;SDS011;64046;51.978;5.934;2023-04-03T10:17:53;1.55;;;0.90;;
75358;SDS011;64046;51.978;5.934;2023-04-03T10:20:29;2.22;;;1.10;;
75358;SDS011;64046;51.978;5.934;2023-04-03T10:23:10;2.08;;;1.20;;
75358;SDS011;64046;51.978;5.934;2023-04-03T10:25:47;2.67;;;1.23;;
75358;SDS011;64046;51.978;5.934;2023-04-03T10:28:27;1.40;;;0.90;;
75358;SDS011;64046;51.978;5.934;2023-04-03T10:31:03;3.55;;;1.10;;
75358;SDS011;64046;51.978;5.934;2023-04-03T10:33:50;4.07;;;1.73;;
75358;SDS011;64046;51.978;5.934;2023-04-03T10:36:28;5.47;;;1.50;;
75358;SDS011;64046;51.978;5.934;2023-04-03T10:39:08;3.30;;;1.40;;
75358;SDS011;64046;51.978;5.934;2023-04-03T10:41:55;2.42;;;1.20;;
75358;SDS011;64046;51.978;5.934;2023-04-03T10:44:32;4.22;;;1.45;;
75358;SDS011;64046;51.978;5.934;2023-04-03T10:47:11;2.70;;;1.30;;
75358;SDS011;64046;51.978;5.934;2023-04-03T10:49:52;2.42;;;1.30;;
75358;SDS011;64046;51.978;5.934;2023-04-03T10:52:28;4.80;;;1.48;;
75358;SDS011;64046;51.978;5.934;2023-04-03T10:55:09;5.85;;;1.50;;
75358;SDS011;64046;51.978;5.934;2023-04-03T10:57:54;4.53;;;1.40;;
75358;SDS011;64046;51.978;5.934;2023-04-03T11:00:29;2.30;;;1.13;;
75358;SDS011;64046;51.978;5.934;2023-04-03T11:03:06;2.38;;;1.40;;
75358;SDS011;64046;51.978;5.934;2023-04-03T11:05:44;4.25;;;1.70;;
75358;SDS011;64046;51.978;5.934;2023-04-03T11:08:19;3.03;;;1.38;;
75358;SDS011;64046;51.978;5.934;2023-04-03T11:10:56;2.28;;;1.40;;
75358;SDS011;64046;51.978;5.934;2023-04-03T11:13:30;2.28;;;1.30;;
75358;SDS011;64046;51.978;5.934;2023-04-03T11:16:03;2.95;;;1.40;;
75358;SDS011;64046;51.978;5.934;2023-04-03T11:18:35;2.35;;;1.20;;
75358;SDS011;64046;51.978;5.934;2023-04-03T11:21:12;2.33;;;1.17;;
75358;SDS011;64046;51.978;5.934;2023-04-03T11:23:47;3.55;;;1.33;;
75358;SDS011;64046;51.978;5.934;2023-04-03T11:26:17;2.45;;;1.10;;
75358;SDS011;64046;51.978;5.934;2023-04-03T11:28:51;2.65;;;1.67;;
75358;SDS011;64046;51.978;5.934;2023-04-03T11:31:37;1.48;;;1.10;;
75358;SDS011;64046;51.978;5.934;2023-04-03T11:34:20;3.45;;;1.60;;
75358;SDS011;64046;51.978;5.934;2023-04-03T11:37:03;3.10;;;1.20;;
75358;SDS011;64046;51.978;5.934;2023-04-03T11:39:41;3.35;;;1.40;;
75358;SDS011;64046;51.978;5.934;2023-04-03T11:42:24;2.38;;;1.52;;
75358;SDS011;64046;51.978;5.934;2023-04-03T11:45:16;2.80;;;1.20;;
75358;SDS011;64046;51.978;5.934;2023-04-03T11:47:53;3.13;;;1.00;;
75358;SDS011;64046;51.978;5.934;2023-04-03T11:50:40;2.05;;;1.00;;
75358;SDS011;64046;51.978;5.934;2023-04-03T11:53:29;3.47;;;1.20;;
75358;SDS011;64046;51.978;5.934;2023-04-03T11:56:01;5.53;;;1.38;;
75358;SDS011;64046;51.978;5.934;2023-04-03T11:58:52;1.50;;;1.10;;
75358;SDS011;64046;51.978;5.934;2023-04-03T12:02:14;2.10;;;1.20;;
75358;SDS011;64046;51.978;5.934;2023-04-03T12:14:02;4.60;;;1.35;;
75358;SDS011;64046;51.978;5.934;2023-04-03T12:16:41;2.17;;;1.23;;
75358;SDS011;64046;51.978;5.934;2023-04-03T12:22:09;6.60;;;1.50;;
75358;SDS011;64046;51.978;5.934;2023-04-03T12:24:45;2.90;;;1.48;;
75358;SDS011;64046;51.978;5.934;2023-04-03T12:27:23;3.22;;;1.67;;
75358;SDS011;64046;51.978;5.934;2023-04-03T12:30:05;2.38;;;1.52;;
75358;SDS011;64046;51.978;5.934;2023-04-03T12:32:51;2.22;;;1.20;;
75358;SDS011;64046;51.978;5.934;2023-04-03T12:35:31;2.95;;;1.30;;
75358;SDS011;64046;51.978;5.934;2023-04-03T12:38:15;4.10;;;1.52;;
75358;SDS011;64046;51.978;5.934;2023-04-03T12:40:57;2.90;;;1.52;;
75358;SDS011;64046;51.978;5.934;2023-04-03T12:43:36;1.55;;;1.15;;
75358;SDS011;64046;51.978;5.934;2023-04-03T12:46:13;2.97;;;1.48;;
75358;SDS011;64046;51.978;5.934;2023-04-03T12:48:51;3.47;;;1.20;;
75358;SDS011;64046;51.978;5.934;2023-04-03T12:51:23;1.60;;;1.20;;
75358;SDS011;64046;51.978;5.934;2023-04-03T12:54:02;6.55;;;1.30;;
75358;SDS011;64046;51.978;5.934;2023-04-03T12:56:41;4.82;;;1.45;;
75358;SDS011;64046;51.978;5.934;2023-04-03T12:59:14;1.55;;;1.17;;
75358;SDS011;64046;51.978;5.934;2023-04-03T13:01:52;3.03;;;1.48;;
75358;SDS011;64046;51.978;5.934;2023-04-03T13:04:25;2.30;;;1.30;;
75358;SDS011;64046;51.978;5.934;2023-04-03T13:06:56;3.75;;;1.63;;
75358;SDS011;64046;51.978;5.934;2023-04-03T13:09:26;3.97;;;1.40;;
75358;SDS011;64046;51.978;5.934;2023-04-03T13:11:57;1.95;;;1.10;;
75358;SDS011;64046;51.978;5.934;2023-04-03T13:14:29;2.65;;;1.30;;
75358;SDS011;64046;51.978;5.934;2023-04-03T13:16:59;3.17;;;1.10;;
75358;SDS011;64046;51.978;5.934;2023-04-03T13:19:35;4.03;;;1.27;;
75358;SDS011;64046;51.978;5.934;2023-04-03T13:22:06;3.22;;;1.42;;
75358;SDS011;64046;51.978;5.934;2023-04-03T13:24:39;1.27;;;1.08;;
75358;SDS011;64046;51.978;5.934;2023-04-03T13:27:10;6.97;;;1.40;;
75358;SDS011;64046;51.978;5.934;2023-04-03T13:29:40;3.42;;;1.95;;
75358;SDS011;64046;51.978;5.934;2023-04-03T13:32:14;2.90;;;1.40;;
75358;SDS011;64046;51.978;5.934;2023-04-03T13:34:50;4.32;;;1.50;;
75358;SDS011;64046;51.978;5.934;2023-04-03T13:37:21;3.83;;;1.55;;
75358;SDS011;64046;51.978;5.934;2023-04-03T13:40:02;2.53;;;1.15;;
75358;SDS011;64046;51.978;5.934;2023-04-03T13:42:40;4.50;;;1.67;;
75358;SDS011;64046;51.978;5.934;2023-04-03T13:45:11;2.65;;;1.40;;
75358;SDS011;64046;51.978;5.934;2023-04-03T13:47:46;3.60;;;1.48;;
75358;SDS011;64046;51.978;5.934;2023-04-03T13:50:20;4.78;;;2.00;;
75358;SDS011;64046;51.978;5.934;2023-04-03T13:52:59;2.65;;;1.67;;
75358;SDS011;64046;51.978;5.934;2023-04-03T13:55:30;2.63;;;1.40;;
75358;SDS011;64046;51.978;5.934;2023-04-03T13:58:02;4.13;;;1.70;;
75358;SDS011;64046;51.978;5.934;2023-04-03T14:00:50;3.72;;;1.70;;
75358;SDS011;64046;51.978;5.934;2023-04-03T14:03:22;2.78;;;1.50;;
75358;SDS011;64046;51.978;5.934;2023-04-03T14:05:55;3.75;;;1.80;;
75358;SDS011;64046;51.978;5.934;2023-04-03T14:08:25;3.40;;;1.67;;
75358;SDS011;64046;51.978;5.934;2023-04-03T14:10:56;2.35;;;1.20;;
75358;SDS011;64046;51.978;5.934;2023-04-03T14:13:26;5.20;;;1.45;;
75358;SDS011;64046;51.978;5.934;2023-04-03T14:15:55;4.68;;;1.35;;
75358;SDS011;64046;51.978;5.934;2023-04-03T14:18:24;7.38;;;1.70;;
75358;SDS011;64046;51.978;5.934;2023-04-03T14:20:56;2.22;;;1.30;;
75358;SDS011;64046;51.978;5.934;2023-04-03T14:23:25;3.58;;;1.50;;
75358;SDS011;64046;51.978;5.934;2023-04-03T14:25:54;4.30;;;1.63;;
75358;SDS011;64046;51.978;5.934;2023-04-03T14:28:23;3.17;;;1.52;;
75358;SDS011;64046;51.978;5.934;2023-04-03T14:30:52;4.15;;;1.38;;
75358;SDS011;64046;51.978;5.934;2023-04-03T14:33:22;4.53;;;1.45;;
75358;SDS011;64046;51.978;5.934;2023-04-03T14:35:53;2.38;;;1.50;;
75358;SDS011;64046;51.978;5.934;2023-04-03T14:38:25;5.95;;;1.90;;
75358;SDS011;64046;51.978;5.934;2023-04-03T14:40:57;3.17;;;1.50;;
75358;SDS011;64046;51.978;5.934;2023-04-03T14:43:27;2.80;;;1.48;;
75358;SDS011;64046;51.978;5.934;2023-04-03T14:45:56;3.65;;;1.60;;
75358;SDS011;64046;51.978;5.934;2023-04-03T14:48:25;7.32;;;2.05;;
75358;SDS011;64046;51.978;5.934;2023-04-03T14:50:59;3.17;;;1.45;;
75358;SDS011;64046;51.978;5.934;2023-04-03T14:53:28;4.47;;;1.70;;
75358;SDS011;64046;51.978;5.934;2023-04-03T14:55:58;2.92;;;1.50;;
75358;SDS011;64046;51.978;5.934;2023-04-03T14:58:27;8.07;;;1.90;;
75358;SDS011;64046;51.978;5.934;2023-04-03T15:00:57;4.25;;;1.80;;
75358;SDS011;64046;51.978;5.934;2023-04-03T15:03:26;4.55;;;1.90;;
75358;SDS011;64046;51.978;5.934;2023-04-03T15:05:56;5.70;;;1.75;;
75358;SDS011;64046;51.978;5.934;2023-04-03T15:08:27;3.33;;;1.48;;
75358;SDS011;64046;51.978;5.934;2023-04-03T15:10:57;4.80;;;2.25;;
75358;SDS011;64046;51.978;5.934;2023-04-03T15:13:27;3.33;;;1.42;;
75358;SDS011;64046;51.978;5.934;2023-04-03T15:15:56;5.22;;;1.73;;
75358;SDS011;64046;51.978;5.934;2023-04-03T15:18:26;4.80;;;1.40;;
75358;SDS011;64046;51.978;5.934;2023-04-03T15:21:02;2.55;;;1.30;;
75358;SDS011;64046;51.978;5.934;2023-04-03T15:23:31;3.65;;;1.30;;
75358;SDS011;64046;51.978;5.934;2023-04-03T15:26:02;4.47;;;1.70;;
75358;SDS011;64046;51.978;5.934;2023-04-03T15:28:32;4.20;;;1.73;;
75358;SDS011;64046;51.978;5.934;2023-04-03T15:31:03;5.85;;;1.67;;
75358;SDS011;64046;51.978;5.934;2023-04-03T15:33:33;3.88;;;1.75;;
75358;SDS011;64046;51.978;5.934;2023-04-03T15:36:06;7.28;;;2.00;;
75358;SDS011;64046;51.978;5.934;2023-04-03T15:38:36;3.72;;;1.77;;
75358;SDS011;64046;51.978;5.934;2023-04-03T15:41:05;3.55;;;1.60;;